Time;durP1;ratioP1;P1;durP2;ratioP2;P2;SDS_P1;SDS_P2;PMS_P1;PMS_P2;Temp;Humidity;BMP_temperature;BMP_pressure;BME280_temperature;BME280_humidity;BME280_pressure;Samples;Min_cycle;Max_cycle;Signal;HPM_P1;HPM_P2
2021/12/06 00:35:56;;;;;;;3.97;1.85;;;;;;;2.92;95.00;98682.09;2316806;69;20260;-80
2021/12/06 00:39:02;;;;;;;2.16;1.90;;;;;;;2.90;94.99;98692.31;2305481;69;20237;-80
2021/12/06 00:42:05;;;;;;;4.68;2.24;;;;;;;2.91;94.97;98693.19;2308465;69;20326;-80
2021/12/06 00:45:08;;;;;;;4.66;2.33;;;;;;;2.90;94.90;98697.44;2309794;69;20287;-80
2021/12/06 00:48:11;;;;;;;2.84;2.06;;;;;;;2.90;94.75;98694.03;2316155;69;20820;-80
2021/12/06 00:51:15;;;;;;;1.91;1.71;;;;;;;2.84;94.53;98707.59;2313741;69;20280;-80
2021/12/06 00:54:18;;;;;;;4.07;1.73;;;;;;;2.77;94.28;98700.66;2319242;69;20269;-80
2021/12/06 00:57:21;;;;;;;2.28;1.88;;;;;;;2.69;94.32;98709.91;2318707;69;20357;-80
2021/12/06 01:00:27;;;;;;;2.35;1.81;;;;;;;2.63;94.36;98714.94;2321765;69;20285;-80
2021/12/06 01:04:10;;;;;;;2.08;1.63;;;;;;;2.57;94.43;98720.00;2316275;69;20255;-80
2021/12/06 01:14:07;;;;;;;1.95;1.48;;;;;;;2.43;94.28;98737.69;2308713;69;20288;-80
2021/12/06 01:17:26;;;;;;;2.24;1.51;;;;;;;2.39;94.37;98731.66;2316609;69;20491;-80
2021/12/06 01:21:28;;;;;;;2.80;1.46;;;;;;;2.34;94.26;98738.41;2270670;70;20695;-80
2021/12/06 02:39:02;;;;;;;2.65;2.38;;;;;;;1.65;95.59;98823.22;2307239;69;20306;-80
2021/12/06 02:42:31;;;;;;;3.17;2.34;;;;;;;1.65;95.77;98828.34;2305982;69;20384;-80
2021/12/06 03:12:29;;;;;;;5.97;4.53;;;;;;;2.09;96.54;98847.19;2296140;69;20281;-81
2021/12/06 03:15:51;;;;;;;4.21;3.42;;;;;;;2.11;96.59;98853.19;2304361;69;20315;-81
2021/12/06 03:19:06;;;;;;;4.76;3.42;;;;;;;2.16;96.67;98855.00;2295434;69;20340;-81
2021/12/06 03:22:15;;;;;;;5.19;4.13;;;;;;;2.22;96.64;98860.25;2295772;69;20280;-81
2021/12/06 03:25:33;;;;;;;5.14;4.13;;;;;;;2.24;96.74;98864.56;2300960;69;20323;-81
2021/12/06 03:28:38;;;;;;;4.68;4.20;;;;;;;2.28;96.75;98866.34;2312036;69;20758;-81
2021/12/06 03:31:41;;;;;;;7.71;4.64;;;;;;;2.33;96.74;98871.53;2309814;69;20317;-81
2021/12/06 03:34:44;;;;;;;6.16;4.57;;;;;;;2.30;96.67;98877.47;2310697;69;20364;-81
2021/12/06 03:37:47;;;;;;;6.64;4.86;;;;;;;2.32;96.66;98886.06;2314329;69;20859;-81
2021/12/06 03:40:50;;;;;;;6.07;5.03;;;;;;;2.34;96.85;98884.41;2312777;69;20240;-81
2021/12/06 03:43:53;;;;;;;5.31;4.79;;;;;;;2.38;96.79;98882.78;2309890;69;20321;-81
2021/12/06 03:47:00;;;;;;;5.45;4.60;;;;;;;2.36;96.65;98885.31;2309409;69;20303;-81
2021/12/06 03:50:05;;;;;;;5.00;4.55;;;;;;;2.35;96.45;98888.69;2311598;69;20295;-81
2021/12/06 03:53:07;;;;;;;5.16;4.49;;;;;;;2.29;96.11;98890.25;2311446;69;20276;-81
2021/12/06 03:56:10;;;;;;;5.19;4.69;;;;;;;2.22;95.80;98894.41;2310401;69;20312;-81
2021/12/06 03:59:14;;;;;;;5.50;4.49;;;;;;;2.17;95.68;98895.16;2313270;69;20527;-81
2021/12/06 04:02:18;;;;;;;5.16;4.66;;;;;;;2.10;95.31;98897.56;2309248;67;50810;-82
2021/12/06 04:05:21;;;;;;;6.84;4.74;;;;;;;2.04;95.19;98909.38;2313274;69;20331;-81
2021/12/06 04:08:25;;;;;;;5.78;4.59;;;;;;;1.99;95.16;98916.09;2309783;69;20291;-81
2021/12/06 04:11:27;;;;;;;6.45;5.13;;;;;;;1.92;95.04;98916.78;2312424;69;20347;-81
2021/12/06 04:14:30;;;;;;;5.39;4.81;;;;;;;1.92;95.31;98924.47;2315797;69;20266;-81
2021/12/06 04:17:35;;;;;;;4.78;4.20;;;;;;;1.87;95.09;98932.03;2317136;66;24871;-81
2021/12/06 04:20:38;;;;;;;5.47;4.44;;;;;;;1.84;95.17;98928.56;2317100;69;20390;-81
2021/12/06 04:23:41;;;;;;;5.07;4.40;;;;;;;1.76;94.98;98929.22;2317593;69;20320;-81
2021/12/06 04:26:44;;;;;;;4.11;3.79;;;;;;;1.72;94.96;98934.25;2318524;69;20319;-81
2021/12/06 04:29:50;;;;;;;5.09;3.89;;;;;;;1.63;94.67;98926.38;2315211;69;20247;-81
2021/12/06 04:32:54;;;;;;;3.36;3.16;;;;;;;1.51;94.58;98927.81;2316696;66;29836;-81
2021/12/06 04:35:57;;;;;;;4.65;3.67;;;;;;;1.45;94.66;98939.59;2317136;69;20746;-81
2021/12/06 04:39:00;;;;;;;3.14;2.90;;;;;;;1.41;94.89;98937.75;2303899;69;20819;-81
2021/12/06 04:42:03;;;;;;;3.81;3.17;;;;;;;1.37;94.94;98939.38;2317844;69;20320;-81
2021/12/06 04:45:06;;;;;;;3.80;3.40;;;;;;;1.31;94.82;98952.03;2321210;69;20290;-82
2021/12/06 04:48:09;;;;;;;3.94;3.60;;;;;;;1.24;94.94;98950.13;2319092;69;20314;-81
2021/12/06 04:51:12;;;;;;;4.11;3.71;;;;;;;1.25;95.40;98958.66;2319077;69;20352;-81
2021/12/06 04:54:16;;;;;;;4.25;3.81;;;;;;;1.24;95.35;98954.38;2317107;69;20286;-82
2021/12/06 04:57:36;;;;;;;4.39;3.99;;;;;;;1.25;95.61;98954.41;2317380;69;20302;-82
2021/12/06 05:00:48;;;;;;;5.14;4.64;;;;;;;1.24;95.47;98962.91;2316166;69;20318;-81
2021/12/06 05:03:51;;;;;;;4.63;4.15;;;;;;;1.24;95.55;98964.59;2324485;69;20258;-81
2021/12/06 05:06:59;;;;;;;7.01;4.39;;;;;;;1.27;95.71;98969.81;2322669;69;20282;-81
2021/12/06 05:10:05;;;;;;;4.47;4.07;;;;;;;1.27;95.62;98973.25;2315274;69;20322;-81
2021/12/06 05:13:08;;;;;;;4.93;4.18;;;;;;;1.26;95.65;98978.28;2319592;69;20210;-81
2021/12/06 05:16:10;;;;;;;4.91;4.50;;;;;;;1.29;95.93;98988.63;2318538;69;20270;-81
2021/12/06 05:19:18;;;;;;;4.97;4.39;;;;;;;1.34;95.92;98994.72;2320929;69;20391;-81
2021/12/06 05:22:21;;;;;;;5.26;4.78;;;;;;;1.31;95.84;99004.88;2318655;69;20307;-80
2021/12/06 05:25:25;;;;;;;5.88;4.79;;;;;;;1.36;96.21;99009.28;2318925;69;20291;-81
2021/12/06 05:28:32;;;;;;;4.66;4.26;;;;;;;1.42;96.33;99021.34;2322253;69;21336;-81
2021/12/06 05:31:39;;;;;;;5.78;4.44;;;;;;;1.48;96.32;99021.53;2322803;69;20246;-80
2021/12/06 05:34:44;;;;;;;5.15;4.04;;;;;;;1.52;96.37;99026.75;2324200;69;20284;-81
2021/12/06 05:37:50;;;;;;;6.68;4.55;;;;;;;1.57;96.39;99026.84;2320002;69;21530;-80
2021/12/06 05:40:53;;;;;;;5.22;4.68;;;;;;;1.58;96.38;99036.25;2316352;69;20251;-81
2021/12/06 05:43:56;;;;;;;6.55;4.85;;;;;;;1.59;96.44;99035.44;2323203;69;20363;-81
2021/12/06 05:47:00;;;;;;;5.09;4.45;;;;;;;1.59;96.40;99037.13;2317923;69;20246;-81
2021/12/06 05:50:05;;;;;;;6.14;4.79;;;;;;;1.63;96.55;99041.53;2316477;69;20271;-81
2021/12/06 05:53:07;;;;;;;5.51;4.57;;;;;;;1.67;96.64;99039.06;2314377;69;20305;-81
2021/12/06 05:56:10;;;;;;;5.21;4.51;;;;;;;1.72;96.57;99052.84;2317912;69;20366;-81
2021/12/06 05:59:14;;;;;;;5.80;4.97;;;;;;;1.75;96.57;99052.91;2312994;69;20247;-81
2021/12/06 06:02:17;;;;;;;6.95;5.54;;;;;;;1.79;96.61;99056.41;2318459;66;26001;-81
2021/12/06 06:05:21;;;;;;;6.03;5.43;;;;;;;1.83;96.63;99053.13;2317391;69;20344;-81
2021/12/06 06:08:25;;;;;;;5.29;4.79;;;;;;;1.85;96.57;99060.81;2317481;69;20320;-81
2021/12/06 06:11:28;;;;;;;9.06;5.86;;;;;;;1.86;96.70;99065.13;2318174;69;20266;-81
2021/12/06 06:14:32;;;;;;;6.80;5.09;;;;;;;1.87;96.55;99077.94;2316736;69;20286;-81
2021/12/06 06:17:41;;;;;;;7.20;5.45;;;;;;;1.87;96.61;99079.66;2318924;66;23917;-81
2021/12/06 06:20:47;;;;;;;9.32;5.03;;;;;;;1.89;96.68;99091.66;2317715;69;20284;-81
2021/12/06 06:23:54;;;;;;;8.09;6.22;;;;;;;1.92;96.82;99094.28;2319895;69;20159;-81
2021/12/06 06:26:57;;;;;;;7.61;5.44;;;;;;;1.96;96.83;99106.31;2321206;69;21289;-81
2021/12/06 06:30:00;;;;;;;6.84;5.68;;;;;;;1.98;96.76;99108.94;2318868;69;20341;-77
2021/12/06 06:33:03;;;;;;;5.85;5.25;;;;;;;1.99;96.77;99097.88;2308060;66;22015;-77
2021/12/06 06:36:06;;;;;;;9.19;6.07;;;;;;;1.99;96.77;99093.63;2307225;69;20376;-77
2021/12/06 06:39:10;;;;;;;7.28;6.11;;;;;;;2.01;96.85;99094.53;2308447;69;20413;-77
2021/12/06 06:42:13;;;;;;;6.44;5.49;;;;;;;2.01;96.63;99098.78;2308037;69;20318;-77
2021/12/06 06:45:19;;;;;;;7.00;6.15;;;;;;;2.01;96.63;99104.78;2309807;66;24383;-79
2021/12/06 06:48:21;;;;;;;9.76;6.76;;;;;;;2.00;96.65;99108.16;2312086;69;20330;-80
2021/12/06 06:51:25;;;;;;;7.56;6.11;;;;;;;2.03;96.69;99108.22;2313832;69;20432;-80
2021/12/06 06:54:27;;;;;;;8.49;6.46;;;;;;;2.05;96.71;99116.81;2313459;69;20820;-80
2021/12/06 06:57:30;;;;;;;8.43;6.47;;;;;;;2.06;96.64;99110.88;2313654;69;20726;-80
2021/12/06 07:00:36;;;;;;;8.13;6.55;;;;;;;2.08;96.58;99116.03;2312092;69;20356;-80
2021/12/06 07:03:39;;;;;;;7.63;6.65;;;;;;;2.07;96.52;99121.97;2314700;69;20316;-80
2021/12/06 07:06:42;;;;;;;7.72;6.30;;;;;;;2.06;96.39;99120.25;2311846;69;21636;-80
2021/12/06 07:09:45;;;;;;;8.81;6.85;;;;;;;2.04;96.25;99127.03;2312957;69;21163;-80
2021/12/06 07:12:50;;;;;;;7.80;6.28;;;;;;;2.02;96.28;99138.91;2313150;69;20312;-80
2021/12/06 07:15:54;;;;;;;11.06;6.82;;;;;;;2.01;96.33;99137.19;2312621;69;20298;-80
2021/12/06 07:18:57;;;;;;;6.66;5.76;;;;;;;1.99;96.24;99137.16;2314848;69;20328;-79
2021/12/06 07:22:20;;;;;;;8.57;6.04;;;;;;;1.96;96.02;99152.41;2313121;69;20353;-80
2021/12/06 07:25:23;;;;;;;7.57;6.53;;;;;;;1.94;96.12;99148.09;2312165;69;20295;-77
2021/12/06 07:28:26;;;;;;;6.76;5.94;;;;;;;1.94;95.92;99163.44;2309090;69;21442;-77
2021/12/06 07:31:30;;;;;;;6.26;5.63;;;;;;;1.94;96.05;99172.00;2306493;66;25533;-77
2021/12/06 07:34:36;;;;;;;7.20;5.85;;;;;;;1.94;95.93;99169.44;2309169;69;20294;-78
2021/12/06 07:37:39;;;;;;;8.65;5.84;;;;;;;1.91;95.72;99178.72;2309749;69;20320;-78
2021/12/06 07:40:42;;;;;;;6.78;5.86;;;;;;;1.91;95.91;99179.59;2308826;69;21041;-79
2021/12/06 07:43:45;;;;;;;6.64;5.89;;;;;;;1.93;95.74;99182.19;2310402;69;20311;-78
2021/12/06 07:46:50;;;;;;;8.50;6.72;;;;;;;1.88;95.61;99176.09;2307445;67;25657;-79
2021/12/06 07:49:53;;;;;;;7.96;6.46;;;;;;;1.90;96.02;99172.75;2309284;69;20415;-80
2021/12/06 07:53:00;;;;;;;9.59;6.81;;;;;;;1.94;95.95;99173.69;2323427;69;20388;-81
2021/12/06 07:56:03;;;;;;;9.24;6.78;;;;;;;1.94;95.89;99173.69;2319022;69;20327;-81
2021/12/06 07:59:06;;;;;;;9.01;7.24;;;;;;;1.99;95.88;99179.81;2324445;69;20424;-82
2021/12/06 08:02:09;;;;;;;8.45;6.88;;;;;;;2.00;95.82;99182.41;2320343;66;33353;-81
2021/12/06 08:06:01;;;;;;;9.59;7.40;;;;;;;2.03;95.86;99192.72;2316859;69;20957;-80
2021/12/06 08:09:51;;;;;;;9.68;7.65;;;;;;;2.07;95.72;99196.22;2279553;69;20393;-77
2021/12/06 08:12:55;;;;;;;13.02;8.31;;;;;;;2.09;95.83;99207.38;2314862;69;20295;-80
2021/12/06 08:16:03;;;;;;;10.84;6.72;;;;;;;2.06;95.64;99209.84;2312232;66;27848;-81
2021/12/06 08:19:07;;;;;;;10.23;7.98;;;;;;;1.93;94.78;99208.66;2312984;69;20292;-81
2021/12/06 08:22:09;;;;;;;10.00;7.56;;;;;;;1.86;95.18;99216.16;2313908;69;21037;-81
2021/12/06 08:25:13;;;;;;;11.19;7.61;;;;;;;1.88;95.38;99224.72;2313212;69;20397;-81
2021/12/06 08:28:17;;;;;;;11.11;7.85;;;;;;;1.94;95.58;99228.31;2312334;69;20302;-79
2021/12/06 08:31:22;;;;;;;9.91;7.25;;;;;;;1.96;95.41;99236.03;2306487;66;22727;-78
2021/12/06 08:34:24;;;;;;;11.04;7.34;;;;;;;1.96;95.33;99231.78;2309131;69;21120;-78
2021/12/06 08:37:27;;;;;;;11.43;7.97;;;;;;;1.97;95.39;99233.50;2308224;69;20326;-79
2021/12/06 08:40:31;;;;;;;11.88;7.70;;;;;;;2.00;95.34;99232.75;2309216;69;20430;-78
2021/12/06 08:43:35;;;;;;;13.50;6.57;;;;;;;1.94;94.89;99236.00;2308413;69;20328;-79
2021/12/06 08:46:39;;;;;;;9.01;6.64;;;;;;;1.91;94.92;99229.94;2309252;66;20928;-79
2021/12/06 08:49:42;;;;;;;8.68;5.69;;;;;;;1.97;95.29;99241.19;2309801;69;21436;-79
2021/12/06 08:52:46;;;;;;;6.34;5.24;;;;;;;2.02;95.21;99226.84;2309071;69;20302;-79
2021/12/06 08:55:50;;;;;;;8.65;5.79;;;;;;;2.08;95.10;99232.13;2309113;69;20314;-78
2021/12/06 08:58:54;;;;;;;8.61;5.55;;;;;;;2.11;94.71;99232.19;2310305;69;20480;-79
2021/12/06 09:01:57;;;;;;;8.59;5.50;;;;;;;2.11;94.62;99226.19;2307484;66;21253;-78
2021/12/06 09:05:24;;;;;;;8.06;4.68;;;;;;;2.16;94.38;99237.47;2308772;69;20363;-79
2021/12/06 09:08:27;;;;;;;7.39;4.95;;;;;;;2.26;94.51;99228.31;2303391;69;20604;-78
2021/12/06 09:11:30;;;;;;;10.96;5.53;;;;;;;2.35;94.47;99236.25;2308792;69;20374;-79
2021/12/06 09:14:33;;;;;;;8.73;5.01;;;;;;;2.35;94.19;99242.22;2309053;69;20310;-78
2021/12/06 09:17:36;;;;;;;9.59;5.61;;;;;;;2.36;94.42;99245.66;2306786;66;23947;-79
2021/12/06 09:20:41;;;;;;;6.71;4.74;;;;;;;2.31;94.05;99230.16;2309506;69;20871;-78
2021/12/06 09:23:44;;;;;;;5.79;4.35;;;;;;;2.22;93.38;99236.75;2307990;69;20290;-78
2021/12/06 09:26:47;;;;;;;7.14;4.46;;;;;;;2.15;93.29;99230.56;2309728;69;21138;-79
2021/12/06 09:29:50;;;;;;;16.05;4.88;;;;;;;2.03;93.05;99238.81;2307728;69;20310;-79
2021/12/06 09:32:55;;;;;;;5.46;4.21;;;;;;;1.96;92.82;99252.25;2305927;66;35989;-78
2021/12/06 09:35:59;;;;;;;7.45;4.76;;;;;;;1.89;92.98;99257.19;2307296;69;20298;-79
2021/12/06 09:39:05;;;;;;;7.26;4.65;;;;;;;1.93;93.32;99269.22;2312761;69;20863;-81
2021/12/06 09:42:08;;;;;;;8.73;4.66;;;;;;;2.02;93.59;99261.81;2307389;69;20375;-80
2021/12/06 09:45:16;;;;;;;8.18;4.43;;;;;;;2.01;93.19;99268.63;2309589;69;20318;-79
2021/12/06 09:48:20;;;;;;;6.60;4.21;;;;;;;2.13;93.85;99268.09;2310672;69;20331;-79
2021/12/06 09:51:27;;;;;;;5.45;4.24;;;;;;;2.24;93.84;99266.69;2308893;69;20302;-81
2021/12/06 09:54:33;;;;;;;5.43;4.34;;;;;;;2.32;93.76;99260.06;2313631;69;20282;-81
2021/12/06 09:57:37;;;;;;;8.02;4.53;;;;;;;2.44;93.71;99264.63;2308140;69;20286;-79
2021/12/06 10:00:47;;;;;;;5.49;3.92;;;;;;;2.54;93.52;99265.75;2306352;67;22253;-79
2021/12/06 10:03:53;;;;;;;4.74;4.00;;;;;;;2.56;93.09;99262.41;2307035;69;20282;-79
2021/12/06 10:06:56;;;;;;;6.15;4.09;;;;;;;2.57;92.65;99263.28;2306617;69;20702;-79
2021/12/06 10:10:00;;;;;;;4.86;4.09;;;;;;;2.58;92.17;99263.31;2306880;69;20335;-78
2021/12/06 10:13:03;;;;;;;5.39;4.10;;;;;;;2.54;91.74;99251.25;2306865;69;20297;-79
2021/12/06 10:16:08;;;;;;;7.13;4.38;;;;;;;2.53;92.04;99253.78;2306864;66;23021;-79
2021/12/06 10:19:12;;;;;;;6.91;4.97;;;;;;;2.53;92.03;99253.78;2307745;69;20381;-79
2021/12/06 10:22:15;;;;;;;6.32;4.78;;;;;;;2.62;92.23;99256.56;2299533;69;21254;-79
2021/12/06 10:25:18;;;;;;;5.14;4.64;;;;;;;2.69;92.07;99253.31;2308438;69;20390;-79
2021/12/06 10:28:31;;;;;;;6.76;5.39;;;;;;;2.82;92.21;99252.78;2308309;69;20346;-79
2021/12/06 10:39:43;;;;;;;6.72;4.93;;;;;;;3.13;91.57;99261.19;2306898;69;20313;-79
2021/12/06 10:42:48;;;;;;;7.24;4.99;;;;;;;3.23;90.85;99258.00;2308377;69;20375;-79
2021/12/06 10:45:51;;;;;;;4.66;4.14;;;;;;;3.34;90.80;99262.53;2299861;66;23358;-79
2021/12/06 10:48:59;;;;;;;5.65;4.44;;;;;;;3.50;90.37;99245.78;2301328;69;20291;-80
2021/12/06 10:52:07;;;;;;;6.41;4.29;;;;;;;3.65;89.91;99242.69;2300027;69;20345;-80
2021/12/06 10:55:10;;;;;;;5.14;4.36;;;;;;;3.76;89.41;99243.75;2300180;69;20339;-79
2021/12/06 10:58:18;;;;;;;4.93;4.25;;;;;;;3.80;88.28;99232.72;2300119;69;20320;-82
2021/12/06 11:01:27;;;;;;;4.80;4.30;;;;;;;3.77;86.96;99234.34;2316467;69;20294;-82
2021/12/06 11:04:31;;;;;;;4.10;3.56;;;;;;;3.83;87.04;99229.34;2314929;69;20194;-82
2021/12/06 11:07:34;;;;;;;7.88;6.43;;;;;;;3.99;86.85;99227.94;2314163;69;20357;-79
2021/12/06 11:10:50;;;;;;;18.91;13.20;;;;;;;4.14;87.01;99229.09;2303248;69;20358;-79
2021/12/06 11:13:58;;;;;;;6.10;4.93;;;;;;;4.28;87.12;99228.47;2302865;69;20830;-79
2021/12/06 11:17:06;;;;;;;5.31;4.10;;;;;;;4.24;85.75;99224.97;2303108;67;24016;-80
2021/12/06 11:20:21;;;;;;;5.34;4.41;;;;;;;4.14;85.43;99225.66;2303139;69;20235;-80
2021/12/06 11:23:23;;;;;;;4.60;4.20;;;;;;;4.01;84.65;99227.13;2302144;69;20357;-79
2021/12/06 11:26:35;;;;;;;5.50;4.96;;;;;;;4.00;84.81;99229.66;2301772;69;20295;-79
2021/12/06 11:29:41;;;;;;;5.34;4.30;;;;;;;4.09;85.40;99238.41;2304079;69;20287;-79
2021/12/06 11:32:48;;;;;;;5.19;4.11;;;;;;;4.19;85.15;99236.88;2301533;66;21704;-79
2021/12/06 11:35:50;;;;;;;6.49;4.29;;;;;;;4.24;84.81;99228.41;2298850;69;21170;-79
2021/12/06 11:38:59;;;;;;;5.53;4.18;;;;;;;4.29;84.59;99218.22;2303723;69;20810;-80
2021/12/06 11:42:02;;;;;;;6.03;4.44;;;;;;;4.33;84.73;99214.00;2302077;69;20400;-79
2021/12/06 11:45:05;;;;;;;5.44;4.78;;;;;;;4.29;84.60;99207.94;2301798;69;20278;-80
2021/12/06 11:48:14;;;;;;;10.30;6.29;;;;;;;4.35;84.54;99202.91;2301104;69;27190;-79
2021/12/06 11:51:18;;;;;;;5.57;4.78;;;;;;;4.45;84.73;99209.94;2302419;69;20295;-79
2021/12/06 11:54:21;;;;;;;4.95;3.95;;;;;;;4.47;83.80;99203.09;2300608;69;20380;-80
2021/12/06 11:57:31;;;;;;;13.75;9.90;;;;;;;4.41;82.55;99203.00;2303453;69;20404;-79
2021/12/06 12:00:34;;;;;;;9.90;7.45;;;;;;;4.37;82.87;99193.53;2302015;67;22858;-79
2021/12/06 12:03:39;;;;;;;9.00;8.14;;;;;;;4.37;83.09;99190.94;2303370;69;21012;-79
2021/12/06 12:06:49;;;;;;;7.14;6.13;;;;;;;4.37;82.99;99185.81;2300637;69;20287;-79
2021/12/06 12:09:57;;;;;;;4.82;4.32;;;;;;;4.35;82.49;99184.06;2295351;69;21063;-80
2021/12/06 12:13:00;;;;;;;4.20;3.71;;;;;;;4.36;82.69;99180.66;2302277;69;20463;-80
2021/12/06 12:16:09;;;;;;;3.35;3.05;;;;;;;4.34;82.56;99179.75;2299906;66;23902;-80
2021/12/06 12:19:12;;;;;;;2.92;2.70;;;;;;;4.32;82.38;99171.16;2303001;69;20364;-80
2021/12/06 12:22:16;;;;;;;3.84;2.63;;;;;;;4.35;82.62;99168.63;2301197;69;20787;-79
2021/12/06 12:25:25;;;;;;;4.81;2.41;;;;;;;4.38;82.12;99177.25;2301249;69;20315;-79
2021/12/06 12:28:36;;;;;;;3.91;1.91;;;;;;;4.30;81.07;99173.66;2301220;69;20328;-80
2021/12/06 12:31:39;;;;;;;3.13;2.21;;;;;;;4.18;80.50;99165.78;2303821;67;22297;-81
2021/12/06 12:34:45;;;;;;;3.20;2.66;;;;;;;4.19;81.43;99163.22;2298697;69;20287;-81
2021/12/06 12:37:51;;;;;;;2.95;2.08;;;;;;;4.15;81.26;99166.59;2310907;69;20380;-82
2021/12/06 12:40:57;;;;;;;1.58;1.48;;;;;;;4.07;81.52;99162.16;2295560;69;20844;-79
2021/12/06 12:44:04;;;;;;;2.67;2.42;;;;;;;3.97;81.11;99168.84;2301663;69;20315;-79
2021/12/06 12:47:34;;;;;;;2.45;2.25;;;;;;;3.86;80.80;99173.75;2300236;67;25822;-79
2021/12/06 12:50:37;;;;;;;2.33;2.05;;;;;;;3.79;80.12;99171.94;2296562;69;20309;-79
2021/12/06 12:53:47;;;;;;;2.59;2.39;;;;;;;3.71;80.08;99165.75;2301061;69;20319;-79
2021/12/06 12:57:02;;;;;;;2.78;2.31;;;;;;;3.62;79.94;99163.91;2300952;69;20380;-79
2021/12/06 13:00:06;;;;;;;2.86;2.21;;;;;;;3.66;80.81;99158.81;2299217;69;20685;-79
2021/12/06 13:03:32;;;;;;;2.75;2.16;;;;;;;3.78;81.47;99157.38;2300453;66;29539;-79
2021/12/06 13:06:37;;;;;;;2.13;1.92;;;;;;;3.89;81.83;99147.25;2302210;69;20319;-79
2021/12/06 13:09:39;;;;;;;4.57;2.74;;;;;;;3.89;80.87;99148.13;2300040;69;20315;-79
2021/12/06 13:12:57;;;;;;;2.80;2.60;;;;;;;3.99;81.63;99135.47;2299748;69;20307;-79
2021/12/06 13:19:45;;;;;;;3.94;3.54;;;;;;;4.02;81.51;99138.94;2302326;69;20308;-79
2021/12/06 13:22:51;;;;;;;3.55;3.25;;;;;;;4.07;82.04;99133.88;2302270;69;20305;-79
2021/12/06 13:26:08;;;;;;;2.42;2.22;;;;;;;4.13;82.38;99127.16;2301155;69;21152;-79
2021/12/06 13:29:23;;;;;;;4.56;2.40;;;;;;;4.13;81.50;99129.75;2300390;69;20305;-79
2021/12/06 13:32:34;;;;;;;2.55;2.35;;;;;;;4.15;80.94;99122.06;2300313;67;21890;-79
2021/12/06 13:35:55;;;;;;;5.01;3.71;;;;;;;4.17;80.92;99120.38;2303390;69;20539;-79
2021/12/06 13:38:58;;;;;;;3.41;2.71;;;;;;;4.23;81.48;99120.47;2301354;69;20427;-79
2021/12/06 13:42:06;;;;;;;3.59;2.83;;;;;;;4.20;81.26;99115.28;2302313;69;20942;-79
2021/12/06 13:45:16;;;;;;;3.39;2.95;;;;;;;4.18;81.29;99106.69;2301919;69;21097;-78
2021/12/06 13:48:40;;;;;;;2.72;2.46;;;;;;;4.18;81.39;99106.69;2302553;68;28031;-79
2021/12/06 13:51:46;;;;;;;4.01;3.45;;;;;;;4.19;81.55;99100.69;2303216;69;20311;-78
2021/12/06 13:54:50;;;;;;;3.91;3.46;;;;;;;4.18;81.64;99098.97;2300868;69;20319;-80
2021/12/06 13:57:57;;;;;;;4.40;3.79;;;;;;;4.21;82.35;99088.75;2302085;69;20295;-79
2021/12/06 14:01:02;;;;;;;2.83;2.38;;;;;;;4.21;81.74;99092.16;2299312;67;41202;-78
2021/12/06 14:04:08;;;;;;;3.26;2.88;;;;;;;4.22;81.50;99087.91;2300509;69;20765;-78
2021/12/06 14:07:13;;;;;;;3.95;3.04;;;;;;;4.20;81.91;99084.44;2302009;69;20275;-78
2021/12/06 14:10:17;;;;;;;4.18;3.28;;;;;;;4.24;82.61;99079.38;2301601;69;21123;-77
2021/12/06 14:13:22;;;;;;;3.96;3.56;;;;;;;4.25;82.86;99077.66;2301431;69;20331;-78
2021/12/06 14:16:29;;;;;;;4.38;3.41;;;;;;;4.19;83.19;99083.56;2293106;67;97882;-78
2021/12/06 14:19:33;;;;;;;3.76;3.34;;;;;;;4.18;82.65;99078.41;2294518;69;20179;-78
2021/12/06 14:22:37;;;;;;;4.03;3.60;;;;;;;4.14;82.57;99074.94;2301144;69;20789;-78
2021/12/06 14:25:49;;;;;;;5.31;3.81;;;;;;;4.15;83.00;99074.09;2302207;69;20336;-79
2021/12/06 14:29:05;;;;;;;4.40;3.83;;;;;;;4.13;82.98;99062.03;2301744;69;20325;-77
2021/12/06 14:32:11;;;;;;;4.88;3.69;;;;;;;4.09;83.33;99068.84;2298092;67;42935;-78
2021/12/06 14:35:14;;;;;;;5.47;3.70;;;;;;;3.99;83.00;99077.25;2301355;69;21172;-78
2021/12/06 14:38:24;;;;;;;4.25;3.60;;;;;;;3.99;83.18;99079.81;2300646;69;20296;-78
2021/12/06 14:41:26;;;;;;;6.36;3.53;;;;;;;3.99;83.28;99074.69;2300980;69;20319;-78
2021/12/06 14:44:38;;;;;;;4.78;3.64;;;;;;;3.98;83.27;99074.66;2301666;69;20356;-78
2021/12/06 14:47:55;;;;;;;5.43;3.47;;;;;;;3.97;83.58;99071.22;2286456;69;975734;-78
2021/12/06 14:51:07;;;;;;;6.32;3.45;;;;;;;3.90;83.54;99074.50;2300224;69;20182;-77
2021/12/06 14:54:18;;;;;;;4.82;3.46;;;;;;;3.82;83.59;99071.84;2301334;69;20319;-78
2021/12/06 14:57:33;;;;;;;5.38;3.45;;;;;;;3.79;84.03;99065.78;2296050;69;20888;-78
2021/12/06 15:00:39;;;;;;;17.45;9.10;;;;;;;3.75;84.28;99063.97;2298914;66;24711;-78
2021/12/06 15:03:47;;;;;;;8.99;5.79;;;;;;;3.69;84.48;99061.31;2301462;69;20348;-78
2021/12/06 15:06:50;;;;;;;8.72;5.56;;;;;;;3.60;84.70;99044.94;2301989;69;20303;-78
2021/12/06 15:09:53;;;;;;;8.68;5.30;;;;;;;3.60;84.94;99042.34;2292432;69;20165;-78
2021/12/06 15:12:58;;;;;;;9.25;5.04;;;;;;;3.54;85.02;99038.78;2302534;69;20661;-78
2021/12/06 15:16:06;;;;;;;7.11;4.65;;;;;;;3.48;85.31;99029.28;2296303;66;25536;-78
2021/12/06 15:19:11;;;;;;;7.24;4.25;;;;;;;3.41;85.14;99029.13;2301583;69;20391;-79
2021/12/06 15:22:14;;;;;;;7.21;4.51;;;;;;;3.29;84.82;99017.84;2298016;69;21256;-78
2021/12/06 15:25:16;;;;;;;6.40;4.04;;;;;;;3.17;85.08;99017.59;2301551;69;20335;-78
2021/12/06 15:28:25;;;;;;;6.47;4.09;;;;;;;3.06;85.34;99015.69;2302410;69;20347;-78
2021/12/06 15:31:29;;;;;;;7.15;4.28;;;;;;;2.93;85.49;99014.56;2300683;66;24121;-78
2021/12/06 15:34:35;;;;;;;9.50;4.90;;;;;;;2.83;85.74;99016.06;2300188;69;20308;-77
2021/12/06 15:37:38;;;;;;;6.18;4.44;;;;;;;2.78;86.12;99024.50;2301319;69;20696;-77
2021/12/06 15:40:42;;;;;;;6.43;4.32;;;;;;;2.77;86.44;99020.22;2300332;69;20311;-77
2021/12/06 15:43:49;;;;;;;6.94;4.49;;;;;;;2.72;86.54;99008.19;2301523;69;20308;-78
2021/12/06 15:46:57;;;;;;;5.84;4.07;;;;;;;2.69;86.91;99014.91;2299879;66;23472;-78
2021/12/06 15:50:00;;;;;;;5.06;3.64;;;;;;;2.68;87.10;99006.38;2302226;69;20443;-77
2021/12/06 15:53:03;;;;;;;4.71;4.04;;;;;;;2.66;87.36;99008.03;2301528;69;20347;-78
2021/12/06 15:56:06;;;;;;;3.86;3.39;;;;;;;2.65;87.33;99001.19;2296838;69;20976;-78
2021/12/06 15:59:13;;;;;;;5.60;3.39;;;;;;;2.65;87.43;98988.38;2300673;69;20323;-77
2021/12/06 16:02:19;;;;;;;3.19;2.81;;;;;;;2.64;87.53;98991.75;2299505;66;23560;-78
2021/12/06 16:05:29;;;;;;;3.79;3.11;;;;;;;2.55;86.91;99001.84;2300871;69;20315;-77
2021/12/06 16:08:42;;;;;;;3.17;2.88;;;;;;;2.51;86.98;98988.91;2300772;69;20424;-77
2021/12/06 16:12:07;;;;;;;3.10;2.81;;;;;;;2.50;86.85;98982.06;2300454;69;20848;-78
2021/12/06 16:15:11;;;;;;;3.42;2.90;;;;;;;2.43;86.70;98979.38;2298906;69;20737;-78
2021/12/06 16:18:18;;;;;;;4.30;2.84;;;;;;;2.40;86.89;98975.88;2301428;69;20311;-78
2021/12/06 16:21:28;;;;;;;3.09;2.70;;;;;;;2.39;87.12;98980.16;2300016;69;20376;-78
2021/12/06 16:24:31;;;;;;;;;;;;;;;2.36;87.39;98977.53;2301312;69;20327;-78
2021/12/06 16:27:33;;;;;;;2.72;2.53;;;;;;;2.29;87.37;98977.34;2301576;69;20067;-78
2021/12/06 16:30:36;;;;;;;2.64;2.35;;;;;;;2.22;87.39;98981.47;2298107;66;21942;-77
2021/12/06 16:33:50;;;;;;;2.64;2.44;;;;;;;2.15;87.50;98982.16;2298110;69;20311;-77
2021/12/06 16:36:56;;;;;;;3.09;2.76;;;;;;;2.11;87.71;98978.66;2300071;69;20713;-78
2021/12/06 16:40:05;;;;;;;3.29;2.99;;;;;;;2.06;87.56;98980.28;2298530;69;20315;-77
2021/12/06 16:43:09;;;;;;;3.26;2.74;;;;;;;2.04;87.76;98966.56;2299389;69;20291;-77
2021/12/06 16:46:13;;;;;;;4.53;2.89;;;;;;;2.03;87.86;98969.09;2298816;66;24108;-78
2021/12/06 16:49:28;;;;;;;2.92;2.72;;;;;;;1.98;88.06;98979.25;2299397;69;20315;-77
2021/12/06 16:52:35;;;;;;;3.24;2.74;;;;;;;1.98;88.34;98965.59;2300492;69;20327;-77
2021/12/06 16:55:39;;;;;;;5.51;2.56;;;;;;;1.97;88.39;98961.25;2299120;69;20438;-77
2021/12/06 16:58:44;;;;;;;2.97;2.78;;;;;;;1.94;88.38;98961.19;2294625;69;20328;-78
2021/12/06 17:01:48;;;;;;;4.47;3.16;;;;;;;1.92;88.64;98950.94;2297163;66;32055;-77
2021/12/06 17:04:57;;;;;;;3.71;2.90;;;;;;;1.88;88.74;98950.81;2299091;69;20327;-77
2021/12/06 17:08:03;;;;;;;3.22;2.92;;;;;;;1.86;88.68;98949.94;2299201;69;20389;-78
2021/12/06 17:11:17;;;;;;;6.43;3.78;;;;;;;1.84;88.69;98937.09;2299517;69;20219;-77
2021/12/06 17:14:25;;;;;;;3.86;3.45;;;;;;;1.85;88.80;98945.66;2299383;69;20388;-77
2021/12/06 17:18:03;;;;;;;3.92;3.44;;;;;;;1.88;89.19;98932.91;2297992;69;24024;-77
2021/12/06 17:21:10;;;;;;;4.20;3.69;;;;;;;1.88;89.21;98928.66;2298564;69;20300;-77
2021/12/06 17:24:13;;;;;;;6.53;5.38;;;;;;;1.92;89.26;98924.47;2298625;69;20283;-77